McLaurin, Mississippi
Current Conditions -  °F | °C
As of 4:53 PM on Monday 24 Nov 2014 (Local Time) from KHBG Reporting Station
Clear Clear  
Wind Chill: 62°   Ceiling: Unl
Heat Index: 62°   Visibility: 10mi
Dew Point: 44°   Wind: 7mph
Humidity: 52%   Direction: 350°N
Pressure: 29.94"   Gusts: NA
Location:  31.1996°N, 89.2694°W
Report Text: KHBG 242253Z AUTO 35006KT 10SM CLR 17/07 A2994 RMK AO2 SLP138 T01670067
Loading
Personal Weather Stations






























Interactive Weather Map New forecast layout! Learn more

10-Day Weather Forecast

Advertisements
Track Severe Weather on mobile